createdAt,value
2022-09-10T00:02:33.889Z,12.20
2022-09-10T00:12:41.139Z,10.30
2022-09-10T00:22:47.281Z,12.50
2022-09-10T00:32:54.148Z,11.90
2022-09-10T00:43:00.176Z,11.30
2022-09-10T00:53:08.368Z,12.80
2022-09-10T01:03:15.350Z,10.90
2022-09-10T01:13:26.673Z,9.90
2022-09-10T01:23:53.581Z,11.30
2022-09-10T01:34:05.745Z,10.60
2022-09-10T01:44:12.685Z,8.40
2022-09-10T01:54:29.589Z,9.50
2022-09-10T02:04:36.540Z,8.00
2022-09-10T02:14:42.936Z,9.60
2022-09-10T02:24:48.960Z,8.30
2022-09-10T02:34:54.972Z,9.00
2022-09-10T02:45:01.468Z,8.40
2022-09-10T02:55:07.811Z,5.90
2022-09-10T03:05:13.947Z,6.20
2022-09-10T03:15:21.776Z,5.90
2022-09-10T03:25:27.796Z,6.90
2022-09-10T03:35:34.164Z,6.10
2022-09-10T03:45:41.072Z,5.60
2022-09-10T03:55:48.073Z,4.60
2022-09-10T04:05:54.079Z,5.30
2022-09-10T04:16:01.807Z,3.60
2022-09-10T04:26:14.167Z,4.10
2022-09-10T04:36:21.744Z,3.70
2022-09-10T04:46:27.768Z,3.70
2022-09-10T04:56:34.071Z,4.00
2022-09-10T05:06:40.113Z,4.50
2022-09-10T05:16:47.470Z,3.60
2022-09-10T05:26:53.556Z,6.20
2022-09-10T05:36:59.543Z,4.60
2022-09-10T05:47:05.648Z,5.60
2022-09-10T05:57:12.559Z,2.80
2022-09-10T06:07:18.937Z,4.30
2022-09-10T06:17:24.999Z,4.50
2022-09-10T06:27:31.050Z,4.10
2022-09-10T06:37:37.184Z,3.50
2022-09-10T06:58:09.286Z,3.60
2022-09-10T07:08:18.653Z,4.40
2022-09-10T07:18:25.122Z,4.10
2022-09-10T07:28:31.377Z,4.70
2022-09-10T07:38:38.460Z,4.00
2022-09-10T07:48:43.564Z,5.05
2022-09-10T07:58:49.887Z,6.50
2022-09-10T08:08:56.368Z,5.50
2022-09-10T08:19:03.079Z,8.50
2022-09-10T08:29:09.216Z,7.60
2022-09-10T08:39:15.364Z,6.50
2022-09-10T08:49:21.392Z,7.10
2022-09-10T08:59:37.240Z,7.90
2022-09-10T09:09:43.475Z,6.70
2022-09-10T09:19:58.831Z,6.10
2022-09-10T09:30:06.364Z,10.00
2022-09-10T09:40:13.656Z,6.40
2022-09-10T09:50:19.995Z,6.60
2022-09-10T10:00:37.538Z,7.20
2022-09-10T10:10:43.672Z,8.70
2022-09-10T10:20:50.316Z,5.10
2022-09-10T10:30:58.143Z,6.90
2022-09-10T10:41:06.701Z,5.80
2022-09-10T10:51:19.372Z,18.80
2022-09-10T11:01:31.293Z,13.30
2022-09-10T11:11:52.736Z,7.30
2022-09-10T11:22:02.295Z,12.90
2022-09-10T11:32:08.521Z,13.60
2022-09-10T11:42:19.803Z,12.90
2022-09-10T11:52:28.955Z,9.10
2022-09-10T12:02:38.148Z,9.50
2022-09-10T12:12:46.205Z,9.00
2022-09-10T12:22:54.044Z,7.10
2022-09-10T12:33:01.826Z,9.00
2022-09-10T12:43:27.821Z,7.70
2022-09-10T12:53:41.582Z,6.30
2022-09-10T13:04:06.095Z,5.20
2022-09-10T13:14:16.899Z,5.60
2022-09-10T13:24:35.577Z,5.70
2022-09-10T13:34:56.967Z,4.60
2022-09-10T13:45:06.032Z,5.50
2022-09-10T13:55:23.116Z,5.30
2022-09-10T14:16:13.611Z,4.80
2022-09-10T14:26:25.465Z,5.40
2022-09-10T14:36:34.770Z,4.20
2022-09-10T14:46:53.650Z,5.00
2022-09-10T14:57:03.707Z,4.10
2022-09-10T15:07:10.127Z,4.40
2022-09-10T15:17:17.003Z,3.90
2022-09-10T15:27:23.071Z,4.70
2022-09-10T15:37:29.250Z,4.20
2022-09-10T15:47:35.447Z,4.90
2022-09-10T15:57:42.238Z,4.40
2022-09-10T16:07:49.562Z,4.00
2022-09-10T16:17:55.605Z,4.80
2022-09-10T16:28:01.629Z,4.00
2022-09-10T16:38:07.703Z,6.00
2022-09-10T16:48:15.079Z,4.90
2022-09-10T16:58:22.004Z,4.20
2022-09-10T17:08:28.945Z,4.50
2022-09-10T17:18:35.004Z,4.30
2022-09-10T17:28:41.692Z,4.40
2022-09-10T17:38:48.592Z,5.70
2022-09-10T17:48:55.320Z,6.10
2022-09-10T17:59:02.801Z,4.60
2022-09-10T18:09:09.748Z,5.80
2022-09-10T18:19:17.080Z,5.30
2022-09-10T18:29:28.060Z,5.00
2022-09-10T18:39:35.843Z,5.10
2022-09-10T18:49:43.461Z,4.40
2022-09-10T18:59:49.524Z,5.00
2022-09-10T19:09:55.556Z,5.30
2022-09-10T19:20:01.596Z,4.70
2022-09-10T19:30:07.959Z,4.90
2022-09-10T19:40:14.024Z,4.90
2022-09-10T19:50:23.233Z,6.50
2022-09-10T20:00:46.520Z,5.30
2022-09-10T20:10:53.068Z,7.50
2022-09-10T20:21:16.121Z,6.00
2022-09-10T20:31:21.733Z,7.20
2022-09-10T20:41:31.279Z,7.00
2022-09-10T20:51:39.459Z,6.30
2022-09-10T21:01:47.075Z,6.00
2022-09-10T21:11:53.312Z,5.10
2022-09-10T21:21:59.357Z,7.90
2022-09-10T21:32:05.507Z,5.90
2022-09-10T21:42:12.828Z,6.60
2022-09-10T21:52:18.869Z,5.40
2022-09-10T22:02:24.992Z,6.30
2022-09-10T22:12:31.096Z,6.40
2022-09-10T22:22:37.373Z,5.10
2022-09-10T22:32:43.593Z,7.00
2022-09-10T22:42:49.636Z,7.00
2022-09-10T22:52:56.267Z,7.50
2022-09-10T23:03:02.844Z,7.30
2022-09-10T23:13:08.949Z,7.40
2022-09-10T23:23:14.995Z,6.00
2022-09-10T23:33:21.032Z,7.40
2022-09-10T23:43:27.696Z,9.40
2022-09-10T23:53:33.816Z,6.50
